createdAt,value
2022-08-17T00:00:34.759Z,0
2022-08-17T00:10:24.168Z,0
2022-08-17T00:20:34.974Z,0
2022-08-17T00:30:31.738Z,0
2022-08-17T00:50:38.323Z,0
2022-08-17T01:00:41.792Z,0
2022-08-17T01:10:58.019Z,0
2022-08-17T01:30:57.482Z,2
2022-08-17T01:40:57.060Z,4
2022-08-17T01:50:59.303Z,0
2022-08-17T02:01:03.010Z,0
2022-08-17T02:11:08.912Z,0
2022-08-17T02:31:14.311Z,0
2022-08-17T02:41:18.141Z,0
2022-08-17T02:51:21.250Z,0
2022-08-17T03:01:24.651Z,0
2022-08-17T03:11:28.258Z,0
2022-08-17T03:21:32.088Z,0
2022-08-17T03:31:36.900Z,0
2022-08-17T03:41:39.334Z,0
2022-08-17T03:51:42.772Z,0
2022-08-17T04:01:46.410Z,0
2022-08-17T04:11:49.934Z,0
2022-08-17T04:21:53.704Z,0
2022-08-17T04:31:57.252Z,3
2022-08-17T04:42:00.662Z,0
2022-08-17T04:52:04.800Z,0
2022-08-17T05:02:08.150Z,0
2022-08-17T05:12:11.678Z,0
2022-08-17T05:22:15.717Z,0
2022-08-17T05:32:37.590Z,0
2022-08-17T05:42:22.294Z,0
2022-08-17T05:52:25.500Z,0
2022-08-17T06:02:28.873Z,1
2022-08-17T06:12:32.162Z,0
2022-08-17T06:22:36.005Z,5
2022-08-17T06:32:39.645Z,7
2022-08-17T06:42:54.498Z,8
2022-08-17T06:52:47.538Z,4
2022-08-17T07:02:52.141Z,7
2022-08-17T07:12:54.717Z,5
2022-08-17T07:22:59.596Z,3
2022-08-17T07:33:01.407Z,7
2022-08-17T07:43:05.131Z,6
2022-08-17T07:53:08.129Z,0
2022-08-17T08:03:12.126Z,12
2022-08-17T08:13:16.084Z,4
2022-08-17T08:23:19.646Z,0
2022-08-17T08:33:22.849Z,0
2022-08-17T08:43:26.824Z,0
2022-08-17T08:53:30.227Z,0
2022-08-17T09:03:51.424Z,0
2022-08-17T09:23:40.521Z,0
2022-08-17T09:33:43.652Z,0
2022-08-17T09:43:47.418Z,0
2022-08-17T09:53:50.938Z,0
2022-08-17T10:03:54.870Z,3
2022-08-17T10:13:58.376Z,7
2022-08-17T10:24:01.804Z,0
2022-08-17T10:34:05.732Z,5
2022-08-17T10:44:37.775Z,2
2022-08-17T10:54:13.093Z,0
2022-08-17T11:04:16.479Z,9
2022-08-17T11:14:20.091Z,16
2022-08-17T11:24:23.713Z,9
2022-08-17T11:44:30.158Z,1
2022-08-17T11:54:34.534Z,0
2022-08-17T12:04:36.901Z,5
2022-08-17T12:15:06.151Z,5
2022-08-17T12:24:43.427Z,6
2022-08-17T12:34:46.887Z,3
2022-08-17T12:44:50.851Z,2
2022-08-17T12:54:53.530Z,9
2022-08-17T13:04:57.125Z,5
2022-08-17T13:55:14.330Z,2
2022-08-17T14:05:17.630Z,5
2022-08-17T14:25:25.144Z,12
2022-08-17T14:35:28.336Z,15
2022-08-17T14:45:33.360Z,10
2022-08-17T15:25:45.896Z,15
2022-08-17T15:35:49.760Z,15
2022-08-17T15:45:52.929Z,14
2022-08-17T16:36:10.024Z,4
2022-08-17T16:46:13.161Z,9
2022-08-17T16:56:16.273Z,17
2022-08-17T17:06:19.570Z,25
2022-08-17T17:16:23.479Z,28
2022-08-17T17:36:29.675Z,12
2022-08-17T17:56:42.993Z,16
2022-08-17T18:06:40.780Z,6
2022-08-17T18:16:44.667Z,13
2022-08-17T18:26:48.559Z,3
2022-08-17T18:36:52.084Z,15
2022-08-17T18:46:55.253Z,3
2022-08-17T18:56:58.999Z,0
2022-08-17T19:07:02.297Z,2
2022-08-17T19:17:05.942Z,1
2022-08-17T19:27:09.389Z,0
2022-08-17T19:37:12.472Z,0
2022-08-17T19:57:19.882Z,0
2022-08-17T20:07:23.221Z,5
2022-08-17T20:17:28.325Z,0
2022-08-17T20:27:31.423Z,0
2022-08-17T20:37:33.759Z,0
2022-08-17T20:47:36.892Z,0
2022-08-17T20:57:40.787Z,0
2022-08-17T21:07:44.829Z,3
2022-08-17T21:17:47.952Z,0
2022-08-17T21:27:51.737Z,0
2022-08-17T21:37:54.974Z,0
2022-08-17T21:47:59.030Z,2
2022-08-17T21:58:11.390Z,0
2022-08-17T22:08:05.973Z,3
2022-08-17T22:18:09.133Z,2
2022-08-17T22:28:12.328Z,3
2022-08-17T22:48:27.742Z,4
2022-08-17T22:58:30.727Z,3
2022-08-17T23:08:33.875Z,0
2022-08-17T23:28:40.739Z,0
2022-08-17T23:38:44.542Z,0
